Time;durP1;ratioP1;P1;durP2;ratioP2;P2;SDS_P1;SDS_P2;PMS_P1;PMS_P2;Temp;Humidity;BMP_temperature;BMP_pressure;BME280_temperature;BME280_humidity;BME280_pressure;Samples;Min_cycle;Max_cycle;Signal;HPM_P1;HPM_P2
2021/03/31 00:01:09;;;;;;;5.80;5.27;;;14.90;49.70;;;;;;4963873;28;20249;-72
2021/03/31 00:03:34;;;;;;;5.90;5.20;;;14.90;49.40;;;;;;4963529;28;20210;-72
2021/03/31 00:06:00;;;;;;;5.47;4.93;;;14.90;49.30;;;;;;4963036;28;20741;-71
2021/03/31 00:08:26;;;;;;;6.90;5.07;;;14.90;49.40;;;;;;4965361;28;20206;-72
2021/03/31 00:10:53;;;;;;;7.90;5.90;;;15.00;49.60;;;;;;4939649;28;20191;-72
2021/03/31 00:13:21;;;;;;;5.80;5.20;;;14.90;49.70;;;;;;4965329;28;20206;-74
2021/03/31 00:15:47;;;;;;;8.17;4.80;;;14.90;49.80;;;;;;4963683;28;20449;-73
2021/03/31 00:18:16;;;;;;;5.93;5.20;;;14.90;49.50;;;;;;4963171;28;21064;-73
2021/03/31 00:20:42;;;;;;;5.67;4.97;;;14.90;49.50;;;;;;4963331;28;20525;-73
2021/03/31 00:23:10;;;;;;;5.70;5.17;;;14.90;49.80;;;;;;4960394;28;20473;-74
2021/03/31 00:25:36;;;;;;;9.83;5.60;;;14.90;49.50;;;;;;4964094;28;20856;-72
2021/03/31 00:28:01;;;;;;;5.40;4.90;;;14.90;49.60;;;;;;4960237;28;20450;-75
2021/03/31 00:30:28;;;;;;;5.63;5.17;;;14.90;49.50;;;;;;4961349;28;20487;-71
2021/03/31 00:32:54;;;;;;;5.83;5.00;;;14.80;49.80;;;;;;4962125;28;20202;-72
2021/03/31 00:35:20;;;;;;;5.90;5.40;;;14.90;49.80;;;;;;4961557;28;20449;-73
2021/03/31 00:37:45;;;;;;;6.03;5.13;;;14.80;49.90;;;;;;4964723;28;20198;-73
2021/03/31 00:40:14;;;;;;;5.30;4.80;;;14.80;49.90;;;;;;4960107;28;20246;-73
2021/03/31 00:42:41;;;;;;;5.53;4.63;;;14.80;50.00;;;;;;4958362;28;20284;-72
2021/03/31 00:45:08;;;;;;;8.03;5.13;;;14.70;50.20;;;;;;4960822;28;20498;-73
2021/03/31 00:47:35;;;;;;;6.30;5.03;;;14.70;50.00;;;;;;4963508;28;20853;-72
2021/03/31 00:50:01;;;;;;;5.60;5.10;;;14.70;50.40;;;;;;4959767;28;20469;-72
2021/03/31 00:52:26;;;;;;;5.97;5.43;;;14.70;50.40;;;;;;4960175;28;20446;-72
2021/03/31 00:54:52;;;;;;;6.57;5.53;;;14.70;50.60;;;;;;4960441;28;20450;-73
2021/03/31 00:57:18;;;;;;;5.03;4.63;;;14.60;50.80;;;;;;4961964;28;20194;-72
2021/03/31 00:59:44;;;;;;;5.53;5.03;;;14.60;50.60;;;;;;4961518;28;20210;-72
2021/03/31 01:02:10;;;;;;;5.77;5.17;;;14.60;50.70;;;;;;4960530;28;20645;-73
2021/03/31 01:04:36;;;;;;;10.87;6.00;;;14.60;51.00;;;;;;4938752;28;20479;-72
2021/03/31 01:07:02;;;;;;;6.80;5.50;;;14.60;51.20;;;;;;4961965;28;20246;-73
2021/03/31 01:09:28;;;;;;;5.73;4.90;;;14.50;51.20;;;;;;4962452;28;20561;-73
2021/03/31 01:12:37;;;;;;;6.90;5.37;;;14.50;51.30;;;;;;4963543;28;20221;-73
2021/03/31 01:15:08;;;;;;;7.50;6.30;;;14.50;51.70;;;;;;4922816;28;20582;-72
2021/03/31 01:17:45;;;;;;;6.80;5.03;;;14.40;52.00;;;;;;4962903;28;20445;-73
2021/03/31 01:20:14;;;;;;;7.33;6.37;;;14.40;52.30;;;;;;4962546;28;20461;-73
2021/03/31 01:23:17;;;;;;;6.53;5.90;;;14.40;52.50;;;;;;4960109;28;21006;-73
2021/03/31 01:25:46;;;;;;;6.30;5.37;;;14.30;52.70;;;;;;4962342;28;20532;-72
2021/03/31 01:28:53;;;;;;;6.80;5.70;;;14.30;52.40;;;;;;4959850;28;20916;-73
2021/03/31 01:32:05;;;;;;;8.20;5.30;;;14.30;52.60;;;;;;4957560;28;20964;-73
2021/03/31 01:34:41;;;;;;;6.53;5.93;;;14.20;52.80;;;;;;4960314;28;20446;-72
2021/03/31 01:37:22;;;;;;;7.30;5.43;;;14.10;53.00;;;;;;4960752;28;20526;-72
2021/03/31 01:39:50;;;;;;;6.17;5.57;;;14.00;52.90;;;;;;4959222;28;20489;-73
2021/03/31 01:42:18;;;;;;;5.47;4.87;;;13.90;53.00;;;;;;4945626;28;20797;-73
2021/03/31 01:44:45;;;;;;;6.73;5.50;;;13.90;53.30;;;;;;4943149;28;20493;-73
2021/03/31 01:47:13;;;;;;;10.37;6.00;;;13.70;53.70;;;;;;4963526;28;20450;-73
2021/03/31 01:49:40;;;;;;;6.37;5.77;;;13.70;54.00;;;;;;4961142;28;20493;-73
2021/03/31 01:52:07;;;;;;;5.80;5.30;;;13.70;53.80;;;;;;4961825;28;20560;-73
2021/03/31 01:54:34;;;;;;;6.17;5.57;;;13.70;53.70;;;;;;4962980;28;20447;-72
2021/03/31 01:57:01;;;;;;;6.20;5.20;;;13.60;53.50;;;;;;4961830;28;20450;-73
2021/03/31 01:59:27;;;;;;;5.90;5.30;;;13.60;53.70;;;;;;4962092;28;20477;-74
2021/03/31 02:01:55;;;;;;;6.50;5.33;;;13.60;53.80;;;;;;4961363;28;20802;-74
2021/03/31 02:04:22;;;;;;;6.30;5.50;;;13.60;54.10;;;;;;4960918;28;20512;-74
2021/03/31 02:06:50;;;;;;;6.17;5.57;;;13.50;54.40;;;;;;4958981;28;20446;-73
2021/03/31 02:09:17;;;;;;;5.80;5.30;;;13.50;54.60;;;;;;4961174;28;20458;-73
2021/03/31 02:11:44;;;;;;;6.57;5.90;;;13.50;54.70;;;;;;4960767;28;20446;-73
2021/03/31 02:14:17;;;;;;;7.40;5.10;;;13.50;54.70;;;;;;4961678;28;20524;-73
2021/03/31 02:16:44;;;;;;;5.60;5.00;;;13.50;54.90;;;;;;4962667;28;20434;-72
2021/03/31 02:19:20;;;;;;;5.67;5.17;;;13.50;55.20;;;;;;4961925;28;20465;-73
2021/03/31 02:21:48;;;;;;;6.23;5.57;;;13.40;54.90;;;;;;4963035;28;20468;-73
2021/03/31 02:24:16;;;;;;;7.20;5.33;;;13.40;54.90;;;;;;4961072;28;21066;-72
2021/03/31 02:26:42;;;;;;;6.20;5.67;;;13.40;54.80;;;;;;4962143;28;21007;-73
2021/03/31 02:29:09;;;;;;;6.70;5.70;;;13.40;55.20;;;;;;4943467;28;20564;-72
2021/03/31 02:31:36;;;;;;;7.60;6.30;;;13.40;55.20;;;;;;4961171;28;20680;-74
2021/03/31 02:34:04;;;;;;;8.50;5.30;;;13.40;55.30;;;;;;4961738;28;20440;-71
2021/03/31 02:36:31;;;;;;;7.87;5.80;;;13.40;55.30;;;;;;4960463;28;20450;-73
2021/03/31 02:38:57;;;;;;;7.10;5.60;;;13.40;55.40;;;;;;4960734;28;20489;-72
2021/03/31 02:41:24;;;;;;;7.27;5.30;;;13.30;55.70;;;;;;4961057;28;20442;-73
2021/03/31 02:43:51;;;;;;;6.27;5.67;;;13.20;55.70;;;;;;4960904;28;20528;-74
2021/03/31 02:46:20;;;;;;;6.57;5.40;;;13.20;55.90;;;;;;4964191;28;20455;-71
2021/03/31 02:48:48;;;;;;;8.87;5.67;;;13.10;56.00;;;;;;4961865;28;20509;-73
2021/03/31 02:51:16;;;;;;;5.80;5.20;;;13.10;55.80;;;;;;4963229;28;20557;-74
2021/03/31 02:53:42;;;;;;;9.10;5.80;;;13.00;55.70;;;;;;4963340;28;20537;-73
2021/03/31 02:56:09;;;;;;;6.30;5.73;;;12.90;56.40;;;;;;4966617;28;20532;-73
2021/03/31 02:58:39;;;;;;;6.60;5.77;;;12.80;55.70;;;;;;4965393;28;20755;-73
2021/03/31 03:01:06;;;;;;;8.00;4.90;;;12.70;55.50;;;;;;4966133;28;20525;-72
2021/03/31 03:03:34;;;;;;;5.93;5.07;;;12.70;55.50;;;;;;4965149;28;20465;-72
2021/03/31 03:06:00;;;;;;;6.90;5.30;;;12.70;56.10;;;;;;4960680;28;20461;-73
2021/03/31 03:08:27;;;;;;;6.03;5.43;;;12.70;56.40;;;;;;4960904;28;20924;-73
2021/03/31 03:10:57;;;;;;;5.57;4.70;;;12.70;56.60;;;;;;4964421;28;20508;-73
2021/03/31 03:13:23;;;;;;;8.13;5.10;;;12.60;56.60;;;;;;4962527;28;20438;-72
2021/03/31 03:15:49;;;;;;;6.00;5.40;;;12.60;56.50;;;;;;4966863;28;20957;-72
2021/03/31 03:18:15;;;;;;;6.40;5.43;;;12.60;56.80;;;;;;4967663;28;20466;-73
2021/03/31 03:20:40;;;;;;;5.93;5.43;;;12.60;57.00;;;;;;4966220;28;20198;-74
2021/03/31 03:23:08;;;;;;;5.37;4.97;;;12.50;56.90;;;;;;4967783;28;20469;-72
2021/03/31 03:25:34;;;;;;;5.40;4.77;;;12.50;57.20;;;;;;4965538;28;20388;-75
2021/03/31 03:28:01;;;;;;;7.03;5.33;;;12.50;57.00;;;;;;4964905;28;20438;-74
2021/03/31 03:30:27;;;;;;;7.33;5.17;;;12.40;57.40;;;;;;4965205;28;20449;-72
2021/03/31 03:32:53;;;;;;;5.53;5.03;;;12.40;57.90;;;;;;4961194;28;20488;-73
2021/03/31 03:35:23;;;;;;;5.83;5.23;;;12.40;58.20;;;;;;4964425;28;20430;-72
2021/03/31 03:37:50;;;;;;;8.73;5.73;;;12.40;58.00;;;;;;4963829;28;20426;-73
2021/03/31 03:40:16;;;;;;;5.47;4.97;;;12.40;58.30;;;;;;4947035;28;20457;-73
2021/03/31 03:42:42;;;;;;;6.57;5.97;;;12.40;58.60;;;;;;4963292;28;20842;-72
2021/03/31 03:45:09;;;;;;;11.60;7.03;;;12.40;58.90;;;;;;4963104;28;20493;-73
2021/03/31 03:47:35;;;;;;;8.23;6.60;;;12.40;58.80;;;;;;4966292;28;20673;-74
2021/03/31 03:50:06;;;;;;;6.40;5.80;;;12.50;58.40;;;;;;4960543;28;20574;-73
2021/03/31 03:52:32;;;;;;;6.73;6.03;;;12.40;58.70;;;;;;4963135;28;20633;-73
2021/03/31 03:54:57;;;;;;;6.47;5.83;;;12.40;59.20;;;;;;4937793;28;20534;-72
2021/03/31 03:57:25;;;;;;;6.30;5.80;;;12.40;59.50;;;;;;4962358;28;20433;-72
2021/03/31 03:59:52;;;;;;;8.63;6.37;;;12.40;59.40;;;;;;4962777;28;20297;-72
2021/03/31 04:02:17;;;;;;;8.47;6.20;;;12.30;59.70;;;;;;4960521;28;21048;-73
2021/03/31 04:04:43;;;;;;;8.20;7.10;;;12.20;59.90;;;;;;4964336;28;20550;-72
2021/03/31 04:07:09;;;;;;;12.43;6.80;;;12.20;60.30;;;;;;4962115;28;20847;-73
2021/03/31 04:09:35;;;;;;;7.30;6.57;;;12.20;60.80;;;;;;4942708;28;20292;-73
2021/03/31 04:12:02;;;;;;;7.03;5.80;;;12.20;60.90;;;;;;4964659;28;20187;-73
2021/03/31 04:14:29;;;;;;;6.90;5.77;;;12.10;61.30;;;;;;4959505;28;20793;-73
2021/03/31 04:16:56;;;;;;;7.97;7.00;;;12.10;61.50;;;;;;4960719;28;20443;-73
2021/03/31 04:19:24;;;;;;;8.27;6.20;;;12.10;61.80;;;;;;4963485;28;20474;-74
2021/03/31 04:21:50;;;;;;;6.37;5.77;;;12.20;62.10;;;;;;4964887;28;20783;-74
2021/03/31 04:24:16;;;;;;;7.97;6.40;;;12.10;62.30;;;;;;4963253;28;20466;-73
2021/03/31 04:26:43;;;;;;;8.33;6.53;;;12.10;62.70;;;;;;4960424;28;20437;-73
2021/03/31 04:29:10;;;;;;;7.50;6.40;;;12.10;62.90;;;;;;4963290;28;20480;-73
2021/03/31 04:31:37;;;;;;;8.17;6.70;;;12.10;63.20;;;;;;4963686;28;20909;-74
2021/03/31 04:34:04;;;;;;;7.40;6.60;;;12.00;63.70;;;;;;4959478;28;20515;-72
2021/03/31 04:36:30;;;;;;;8.63;6.70;;;12.00;64.10;;;;;;4961838;28;20442;-73
2021/03/31 04:38:56;;;;;;;7.80;6.73;;;12.00;64.60;;;;;;4960399;28;21072;-73
2021/03/31 04:41:22;;;;;;;10.90;7.27;;;12.00;64.80;;;;;;4964802;28;20437;-73
2021/03/31 04:43:48;;;;;;;8.77;6.40;;;12.00;65.00;;;;;;4964213;28;20556;-73
2021/03/31 04:46:14;;;;;;;6.83;6.13;;;11.90;65.10;;;;;;4960546;28;20256;-72
2021/03/31 04:48:40;;;;;;;7.53;6.57;;;11.90;64.80;;;;;;4962328;28;20501;-73
2021/03/31 04:51:07;;;;;;;7.40;6.43;;;11.90;65.10;;;;;;4963412;28;20189;-73
2021/03/31 04:53:33;;;;;;;11.53;5.93;;;11.70;65.90;;;;;;4961711;28;20430;-72
2021/03/31 04:56:00;;;;;;;6.50;5.83;;;11.70;66.50;;;;;;4963068;28;20438;-73
2021/03/31 04:58:26;;;;;;;7.40;5.80;;;11.60;66.70;;;;;;4943069;28;20941;-72
2021/03/31 05:00:51;;;;;;;12.17;5.60;;;11.60;66.90;;;;;;4961086;28;20434;-73
2021/03/31 05:03:18;;;;;;;6.50;5.60;;;11.50;67.90;;;;;;4962087;28;20527;-73
2021/03/31 05:05:43;;;;;;;6.50;5.83;;;11.50;68.80;;;;;;4962466;28;20249;-71
2021/03/31 05:08:09;;;;;;;8.37;6.27;;;11.50;69.40;;;;;;4958517;28;20431;-74
2021/03/31 05:10:35;;;;;;;9.60;6.13;;;11.50;69.70;;;;;;4963082;28;20198;-74
2021/03/31 05:13:01;;;;;;;6.90;6.27;;;11.50;70.10;;;;;;4960893;28;20174;-71
2021/03/31 05:15:27;;;;;;;9.30;6.20;;;11.50;70.50;;;;;;4963028;28;20190;-72
2021/03/31 05:17:52;;;;;;;7.30;6.00;;;11.50;70.90;;;;;;4961805;28;20241;-73
2021/03/31 05:20:18;;;;;;;7.10;6.40;;;11.50;70.70;;;;;;4964529;28;20233;-73
2021/03/31 05:22:44;;;;;;;8.37;6.60;;;11.50;70.80;;;;;;4965524;28;20261;-73
2021/03/31 05:25:10;;;;;;;9.53;6.00;;;11.50;71.50;;;;;;4960881;28;20218;-73
2021/03/31 05:27:36;;;;;;;8.60;7.17;;;11.50;72.30;;;;;;4961549;28;20274;-73
2021/03/31 05:30:05;;;;;;;6.33;5.70;;;11.40;72.70;;;;;;4960937;28;20446;-73
2021/03/31 05:32:31;;;;;;;7.20;5.57;;;11.50;73.20;;;;;;4965245;28;20457;-72
2021/03/31 05:34:56;;;;;;;8.33;6.70;;;11.50;73.60;;;;;;4963554;28;20920;-73
2021/03/31 05:37:22;;;;;;;8.30;5.93;;;11.50;74.00;;;;;;4961991;28;20532;-73
2021/03/31 05:39:47;;;;;;;10.30;6.00;;;11.50;73.90;;;;;;4961271;28;20222;-72
2021/03/31 05:42:15;;;;;;;7.43;6.43;;;11.40;75.90;;;;;;4960456;28;20233;-72
2021/03/31 05:44:41;;;;;;;7.00;5.63;;;11.50;74.50;;;;;;4961265;28;20210;-73
2021/03/31 05:47:09;;;;;;;7.97;6.60;;;11.50;75.00;;;;;;4960985;28;20423;-72
2021/03/31 05:49:36;;;;;;;7.57;5.60;;;11.50;75.40;;;;;;4962217;28;20454;-73
2021/03/31 05:52:02;;;;;;;7.03;6.10;;;11.60;76.60;;;;;;4959986;28;20418;-73
2021/03/31 05:54:28;;;;;;;8.07;6.57;;;11.60;76.20;;;;;;4965942;28;20465;-73
2021/03/31 05:56:54;;;;;;;9.17;6.90;;;11.50;77.00;;;;;;4960928;28;21031;-73
2021/03/31 05:59:20;;;;;;;8.90;7.10;;;11.50;77.20;;;;;;4960611;28;20640;-72
2021/03/31 06:01:48;;;;;;;7.53;6.17;;;11.50;77.30;;;;;;4963426;28;20987;-73
2021/03/31 06:04:17;;;;;;;6.80;5.47;;;11.50;78.40;;;;;;4962752;28;20475;-71
2021/03/31 06:06:43;;;;;;;9.20;6.50;;;11.50;78.20;;;;;;4960447;28;21143;-72
2021/03/31 06:09:09;;;;;;;7.80;6.30;;;11.50;78.60;;;;;;4961402;28;20489;-73
2021/03/31 06:11:50;;;;;;;6.73;6.10;;;11.50;78.50;;;;;;4959618;28;20275;-72
2021/03/31 06:14:37;;;;;;;7.73;5.90;;;11.40;78.90;;;;;;4962530;28;20446;-73
2021/03/31 06:17:12;;;;;;;10.03;6.70;;;11.50;79.30;;;;;;4961315;28;20936;-72
2021/03/31 06:19:39;;;;;;;7.20;5.93;;;11.50;80.40;;;;;;4958877;28;20468;-73
2021/03/31 06:24:48;;;;;;;7.63;6.10;;;11.70;79.40;;;;;;4962516;28;20520;-72
2021/03/31 06:27:25;;;;;;;7.83;6.80;;;11.80;81.10;;;;;;4963357;28;21355;-73
2021/03/31 06:30:06;;;;;;;6.40;5.80;;;11.80;81.60;;;;;;4963479;28;20477;-73
2021/03/31 06:32:42;;;;;;;6.57;5.90;;;11.90;81.30;;;;;;4961733;28;20438;-74
2021/03/31 06:35:17;;;;;;;6.30;5.70;;;12.00;82.50;;;;;;4962037;28;20432;-73
2021/03/31 06:37:44;;;;;;;7.30;6.47;;;12.10;81.90;;;;;;4963877;28;20528;-72
2021/03/31 06:40:29;;;;;;;6.33;5.73;;;12.20;81.50;;;;;;4949396;28;20484;-72
2021/03/31 06:43:26;;;;;;;6.03;5.43;;;12.20;80.10;;;;;;4959475;28;20464;-72
2021/03/31 06:46:02;;;;;;;7.70;5.93;;;12.30;78.10;;;;;;4961186;28;20429;-72
2021/03/31 06:48:30;;;;;;;5.83;5.23;;;12.40;76.60;;;;;;4961832;28;20437;-73
2021/03/31 06:50:56;;;;;;;9.23;6.20;;;12.50;76.70;;;;;;4964356;28;20430;-72
2021/03/31 06:53:26;;;;;;;7.57;5.90;;;12.60;75.20;;;;;;4964017;28;20432;-72
2021/03/31 06:56:25;;;;;;;9.20;6.10;;;12.70;75.60;;;;;;4959920;28;20684;-71
2021/03/31 06:59:04;;;;;;;7.93;6.80;;;12.70;74.70;;;;;;4962727;28;20461;-72
2021/03/31 07:01:32;;;;;;;6.87;6.13;;;12.80;75.00;;;;;;4961946;28;20508;-71
2021/03/31 07:04:01;;;;;;;7.87;6.90;;;12.90;74.40;;;;;;4961365;28;20474;-72
2021/03/31 07:06:27;;;;;;;6.90;5.10;;;13.00;73.90;;;;;;4966594;28;20418;-74
2021/03/31 07:08:53;;;;;;;8.80;6.50;;;13.10;73.30;;;;;;4962897;28;20487;-74
2021/03/31 07:11:39;;;;;;;15.53;7.30;;;13.20;72.70;;;;;;4967980;28;20199;-73
2021/03/31 07:14:07;;;;;;;9.33;7.20;;;13.30;72.00;;;;;;4966401;28;20214;-74
2021/03/31 07:16:33;;;;;;;9.07;8.20;;;13.40;70.80;;;;;;4965191;28;20944;-73
2021/03/31 07:19:00;;;;;;;10.57;6.80;;;13.40;70.30;;;;;;4964962;28;20489;-74
2021/03/31 07:21:26;;;;;;;10.47;6.77;;;13.50;70.00;;;;;;4966297;28;20424;-74
2021/03/31 07:23:52;;;;;;;9.00;6.87;;;13.60;70.80;;;;;;4963011;28;20474;-73
2021/03/31 07:26:22;;;;;;;8.93;6.60;;;13.70;69.10;;;;;;4961522;28;20468;-73
2021/03/31 07:28:51;;;;;;;9.93;6.77;;;13.70;69.50;;;;;;4965372;28;20214;-73
2021/03/31 07:31:26;;;;;;;9.20;6.77;;;13.80;68.40;;;;;;4964749;28;20486;-74
2021/03/31 07:34:06;;;;;;;8.70;6.17;;;14.00;67.80;;;;;;4964677;28;20472;-73
2021/03/31 07:36:33;;;;;;;8.13;6.77;;;14.10;67.50;;;;;;4965913;28;20434;-72
2021/03/31 07:39:03;;;;;;;9.23;6.03;;;14.20;67.20;;;;;;4961582;28;20973;-74
2021/03/31 07:41:31;;;;;;;6.70;5.83;;;14.30;66.90;;;;;;4963910;28;20942;-72
2021/03/31 07:43:58;;;;;;;5.77;5.13;;;14.30;66.40;;;;;;4962388;28;20895;-73
2021/03/31 07:46:29;;;;;;;7.50;5.80;;;14.40;66.60;;;;;;4963519;28;20426;-72
2021/03/31 07:48:56;;;;;;;7.23;5.80;;;14.50;66.00;;;;;;4961143;28;20456;-73
2021/03/31 07:51:25;;;;;;;8.57;6.73;;;14.50;65.90;;;;;;4961522;28;20438;-73
2021/03/31 07:53:52;;;;;;;8.83;7.33;;;14.60;66.20;;;;;;4962321;28;20443;-74
2021/03/31 07:56:19;;;;;;;12.43;6.37;;;14.70;66.10;;;;;;4962346;28;20437;-73
2021/03/31 07:59:09;;;;;;;8.03;7.17;;;14.70;66.50;;;;;;4959246;28;20450;-72
2021/03/31 08:01:43;;;;;;;7.40;6.07;;;14.70;66.50;;;;;;4964887;28;20456;-73
2021/03/31 08:04:10;;;;;;;7.20;6.50;;;14.70;66.90;;;;;;4960904;28;20469;-72
2021/03/31 08:06:37;;;;;;;9.10;6.70;;;14.70;67.00;;;;;;4962425;28;20440;-73
2021/03/31 08:09:33;;;;;;;7.90;6.53;;;14.80;67.20;;;;;;4959677;28;21031;-73
2021/03/31 08:12:05;;;;;;;8.17;6.50;;;14.90;66.70;;;;;;4957503;28;20452;-73
2021/03/31 08:14:31;;;;;;;7.27;6.03;;;15.00;66.70;;;;;;4962924;28;20438;-73
2021/03/31 08:16:59;;;;;;;11.00;6.07;;;15.20;65.70;;;;;;4961052;28;20438;-73
2021/03/31 08:19:31;;;;;;;9.60;6.47;;;15.20;65.10;;;;;;4940185;28;20215;-73
2021/03/31 08:21:59;;;;;;;6.90;6.30;;;15.30;65.40;;;;;;4958827;28;20803;-73
2021/03/31 08:24:47;;;;;;;9.10;6.80;;;15.50;65.10;;;;;;4961750;28;20520;-73
2021/03/31 08:27:14;;;;;;;9.23;7.77;;;15.60;64.80;;;;;;4962649;28;20497;-72
2021/03/31 08:29:42;;;;;;;7.17;6.47;;;15.70;64.30;;;;;;4961005;28;20442;-72
2021/03/31 08:32:10;;;;;;;9.27;8.27;;;15.90;64.10;;;;;;4960353;28;21068;-72
2021/03/31 08:34:37;;;;;;;7.13;6.47;;;16.00;73.20;;;;;;4961663;28;20433;-73
2021/03/31 08:37:05;;;;;;;7.10;6.47;;;16.00;78.50;;;;;;4943770;28;20445;-73
2021/03/31 08:39:31;;;;;;;8.13;6.60;;;16.20;72.20;;;;;;4949006;28;21019;-73
2021/03/31 08:41:58;;;;;;;8.00;7.07;;;16.40;71.70;;;;;;4963477;28;20517;-73
2021/03/31 08:44:28;;;;;;;7.23;6.37;;;16.60;71.10;;;;;;4965403;28;20715;-73
2021/03/31 08:46:55;;;;;;;8.07;6.60;;;16.80;70.80;;;;;;4965546;28;20448;-73
2021/03/31 08:49:22;;;;;;;9.30;6.80;;;17.00;61.40;;;;;;4965475;28;20434;-72
2021/03/31 08:51:50;;;;;;;10.37;6.77;;;17.20;60.40;;;;;;4963030;28;21005;-74
2021/03/31 08:54:16;;;;;;;11.27;6.70;;;17.30;59.50;;;;;;4962174;28;20946;-74
2021/03/31 08:56:48;;;;;;;8.67;6.80;;;17.50;59.20;;;;;;4960248;28;20449;-73
2021/03/31 08:59:15;;;;;;;7.63;6.93;;;17.70;59.20;;;;;;4965070;28;20527;-73
2021/03/31 09:01:42;;;;;;;7.63;6.97;;;17.90;58.60;;;;;;4960348;28;20454;-73
2021/03/31 09:04:25;;;;;;;10.17;8.10;;;18.20;58.70;;;;;;4958546;28;20551;-74
2021/03/31 09:06:53;;;;;;;8.00;6.40;;;18.80;58.30;;;;;;4957003;28;20438;-72
2021/03/31 09:09:19;;;;;;;6.47;5.87;;;20.70;57.10;;;;;;4959348;28;20593;-72
2021/03/31 09:11:45;;;;;;;16.83;13.00;;;23.00;52.80;;;;;;4958329;28;21251;-73
2021/03/31 09:14:22;;;;;;;7.27;6.57;;;25.40;67.20;;;;;;4941799;28;20449;-74
2021/03/31 09:16:53;;;;;;;7.00;6.30;;;27.60;65.70;;;;;;4959724;28;20437;-73
2021/03/31 09:19:20;;;;;;;7.63;6.90;;;29.20;58.80;;;;;;4959505;28;20517;-74
2021/03/31 09:21:46;;;;;;;8.33;7.07;;;31.00;58.60;;;;;;4959221;28;20446;-74
2021/03/31 09:24:15;;;;;;;7.40;6.50;;;32.40;53.40;;;;;;4940523;28;20476;-73
2021/03/31 09:26:41;;;;;;;7.60;6.90;;;33.90;46.30;;;;;;4954314;28;20434;-74
2021/03/31 09:29:17;;;;;;;7.30;6.70;;;34.90;42.90;;;;;;4958943;28;20432;-73
2021/03/31 09:31:44;;;;;;;6.40;5.90;;;35.60;39.00;;;;;;4958441;28;20967;-74
2021/03/31 09:34:10;;;;;;;8.63;6.63;;;36.50;38.50;;;;;;4955373;28;20437;-73
2021/03/31 09:36:36;;;;;;;6.00;5.60;;;37.40;36.40;;;;;;4959368;28;20470;-74
2021/03/31 09:39:04;;;;;;;6.60;5.93;;;37.70;33.70;;;;;;4957237;28;20262;-73
2021/03/31 09:41:30;;;;;;;5.77;5.33;;;37.60;32.80;;;;;;4959422;28;20460;-73
2021/03/31 09:43:58;;;;;;;7.30;6.30;;;37.90;32.50;;;;;;4958409;28;20437;-73
2021/03/31 09:46:30;;;;;;;6.47;5.90;;;38.40;31.80;;;;;;4957652;28;20455;-73
2021/03/31 09:48:57;;;;;;;7.63;5.90;;;38.70;31.00;;;;;;4955870;28;20476;-73
2021/03/31 09:51:23;;;;;;;6.63;6.00;;;39.00;30.70;;;;;;4953302;28;20476;-73
2021/03/31 09:53:49;;;;;;;7.17;6.40;;;39.40;30.00;;;;;;4959547;28;20446;-73
2021/03/31 09:56:17;;;;;;;6.50;6.10;;;39.60;29.20;;;;;;4956928;28;20277;-73
2021/03/31 09:58:47;;;;;;;7.33;5.90;;;39.50;28.40;;;;;;4960370;28;20457;-73
2021/03/31 10:01:14;;;;;;;6.13;5.60;;;39.30;28.50;;;;;;4962078;28;20447;-73
2021/03/31 10:03:41;;;;;;;6.23;5.43;;;38.70;28.60;;;;;;4960054;28;20532;-73
2021/03/31 10:06:15;;;;;;;8.30;6.50;;;38.00;28.60;;;;;;4943705;28;20423;-73
2021/03/31 10:08:41;;;;;;;6.00;5.50;;;37.70;28.70;;;;;;4959714;28;20557;-73
2021/03/31 10:11:23;;;;;;;6.47;5.97;;;37.20;28.60;;;;;;4960607;28;20628;-73
2021/03/31 10:13:48;;;;;;;6.70;6.10;;;36.80;28.60;;;;;;4961115;28;20429;-73
2021/03/31 10:16:14;;;;;;;7.20;6.60;;;36.30;28.80;;;;;;4961553;28;20835;-73
2021/03/31 10:18:40;;;;;;;6.60;6.00;;;36.00;29.60;;;;;;4945495;28;20288;-73
2021/03/31 10:21:06;;;;;;;6.70;6.20;;;35.60;29.20;;;;;;4963640;28;20202;-73
2021/03/31 10:23:35;;;;;;;7.87;6.70;;;35.20;29.80;;;;;;4961436;28;21129;-74
2021/03/31 10:26:30;;;;;;;9.07;7.27;;;34.90;30.40;;;;;;4957471;28;20191;-72
2021/03/31 10:29:01;;;;;;;8.07;7.30;;;34.70;30.80;;;;;;4941902;28;20457;-72
2021/03/31 10:31:36;;;;;;;7.40;5.77;;;34.40;30.50;;;;;;4959358;28;20479;-72
2021/03/31 10:34:03;;;;;;;6.80;6.10;;;34.10;30.60;;;;;;4960647;28;20520;-73
2021/03/31 10:51:26;;;;;;;8.53;7.00;;;33.40;30.50;;;;;;4963437;28;20428;-73
2021/03/31 10:53:50;;;;;;;8.20;7.03;;;32.90;30.30;;;;;;4958249;28;20417;-74
2021/03/31 10:56:15;;;;;;;8.13;7.27;;;31.90;31.30;;;;;;4961770;28;20439;-74
2021/03/31 10:58:41;;;;;;;8.40;7.13;;;31.50;31.70;;;;;;4957789;28;20471;-73
2021/03/31 11:01:08;;;;;;;8.27;7.47;;;31.00;32.00;;;;;;4959199;28;20195;-72
2021/03/31 11:03:34;;;;;;;8.50;7.60;;;30.60;32.30;;;;;;4958263;28;20452;-71
2021/03/31 11:06:00;;;;;;;8.90;7.80;;;30.40;33.00;;;;;;4940154;28;20465;-73
2021/03/31 11:08:25;;;;;;;7.90;7.10;;;30.20;32.50;;;;;;4959572;28;20506;-75
2021/03/31 11:10:51;;;;;;;8.63;7.57;;;30.80;32.80;;;;;;4956113;28;20658;-73
2021/03/31 11:13:18;;;;;;;9.20;7.40;;;31.70;32.40;;;;;;4961522;28;20229;-74
2021/03/31 11:15:44;;;;;;;10.70;8.50;;;33.30;31.90;;;;;;4941681;28;20716;-73
2021/03/31 11:18:18;;;;;;;8.20;7.50;;;35.10;30.90;;;;;;4960754;28;20492;-74
2021/03/31 11:22:02;;;;;;;8.80;8.00;;;36.70;29.80;;;;;;4956368;28;20210;-74
2021/03/31 11:26:15;;;;;;;11.17;8.90;;;39.40;28.00;;;;;;4958508;28;20791;-74
2021/03/31 11:28:42;;;;;;;9.23;7.07;;;40.20;26.60;;;;;;4959657;28;20462;-74
2021/03/31 11:31:09;;;;;;;8.37;7.53;;;40.90;26.30;;;;;;4959788;28;20445;-73
2021/03/31 11:33:34;;;;;;;8.50;7.60;;;41.30;26.10;;;;;;4958715;28;20476;-74
2021/03/31 11:36:00;;;;;;;9.23;8.33;;;41.80;25.40;;;;;;4945330;28;20959;-71
2021/03/31 11:38:26;;;;;;;10.57;8.70;;;42.20;25.40;;;;;;4959515;28;20198;-74
2021/03/31 11:40:52;;;;;;;8.80;8.00;;;41.50;24.70;;;;;;4956534;28;20985;-74
2021/03/31 11:43:19;;;;;;;8.53;7.83;;;40.80;25.00;;;;;;4958090;28;20442;-73
2021/03/31 11:45:47;;;;;;;8.80;7.97;;;40.70;25.40;;;;;;4961795;28;20630;-73
2021/03/31 11:48:13;;;;;;;8.83;8.23;;;39.60;25.00;;;;;;4957942;28;20445;-72
2021/03/31 11:50:39;;;;;;;13.00;8.47;;;38.80;25.30;;;;;;4960234;28;20458;-73
2021/03/31 11:53:05;;;;;;;9.90;8.90;;;38.50;26.00;;;;;;4957104;28;20449;-72
2021/03/31 11:55:30;;;;;;;9.57;8.67;;;39.10;25.80;;;;;;4960384;28;20199;-74
2021/03/31 11:57:56;;;;;;;9.53;8.73;;;40.00;25.50;;;;;;4960112;28;20457;-73
2021/03/31 12:00:22;;;;;;;8.90;7.83;;;39.60;25.00;;;;;;4960821;28;20265;-72
2021/03/31 12:02:48;;;;;;;9.10;8.07;;;39.60;25.50;;;;;;4955156;28;20206;-72
2021/03/31 12:05:16;;;;;;;10.13;8.30;;;40.90;25.40;;;;;;4955633;28;20474;-74
2021/03/31 12:07:41;;;;;;;8.60;7.80;;;42.20;24.80;;;;;;4957010;28;20438;-72
2021/03/31 12:10:08;;;;;;;10.03;9.07;;;43.00;24.50;;;;;;4955255;28;20484;-73
2021/03/31 12:12:38;;;;;;;8.70;7.90;;;43.00;23.60;;;;;;4956322;28;20336;-73
2021/03/31 12:15:07;;;;;;;9.53;8.60;;;42.60;23.30;;;;;;4956463;28;20469;-73
2021/03/31 12:17:33;;;;;;;8.53;7.80;;;42.20;22.80;;;;;;4954771;28;20496;-73
2021/03/31 12:19:59;;;;;;;8.70;7.53;;;41.70;23.50;;;;;;4952458;28;20862;-73
2021/03/31 12:22:24;;;;;;;6.70;6.20;;;41.60;22.70;;;;;;4952989;28;20195;-73
2021/03/31 12:24:50;;;;;;;6.50;6.00;;;41.40;21.70;;;;;;4953326;28;20223;-73
2021/03/31 12:27:20;;;;;;;7.10;6.50;;;41.50;21.80;;;;;;4954559;28;20203;-72
2021/03/31 12:29:46;;;;;;;8.70;7.00;;;40.30;22.10;;;;;;4955966;28;20261;-73
2021/03/31 12:32:13;;;;;;;8.60;6.43;;;39.80;22.80;;;;;;4957147;28;21732;-72
2021/03/31 12:34:39;;;;;;;7.03;6.40;;;40.70;22.80;;;;;;4957807;28;20665;-72
2021/03/31 12:37:05;;;;;;;11.10;6.73;;;39.50;22.50;;;;;;4960258;28;20457;-73
2021/03/31 12:39:31;;;;;;;7.00;6.40;;;39.60;23.30;;;;;;4956650;28;20308;-72
2021/03/31 12:41:57;;;;;;;9.10;6.53;;;39.40;23.00;;;;;;4955620;28;20250;-73
2021/03/31 12:44:22;;;;;;;7.57;6.90;;;39.30;22.50;;;;;;4961516;28;20473;-74
2021/03/31 12:46:48;;;;;;;7.60;6.57;;;39.60;22.70;;;;;;4958236;28;20199;-73
2021/03/31 12:49:13;;;;;;;6.93;6.33;;;40.40;22.90;;;;;;4960230;28;20743;-73
2021/03/31 12:51:42;;;;;;;7.23;6.53;;;42.10;22.00;;;;;;4960074;28;20716;-74
2021/03/31 12:54:18;;;;;;;6.50;6.00;;;42.80;21.60;;;;;;4954063;28;20195;-73
2021/03/31 12:56:44;;;;;;;6.23;5.83;;;41.40;21.10;;;;;;4956393;28;20449;-73
2021/03/31 12:59:10;;;;;;;6.40;5.87;;;39.00;21.60;;;;;;4958609;28;21095;-74
2021/03/31 13:01:37;;;;;;;6.83;6.20;;;38.50;22.60;;;;;;4961435;28;20190;-74
2021/03/31 13:04:03;;;;;;;6.10;5.60;;;37.80;22.40;;;;;;4952071;28;20206;-73
2021/03/31 13:06:31;;;;;;;6.30;5.80;;;38.20;23.10;;;;;;4956951;28;20413;-73
2021/03/31 13:08:57;;;;;;;9.27;6.73;;;41.00;22.30;;;;;;4956765;28;20466;-74
2021/03/31 13:11:24;;;;;;;6.10;5.23;;;43.40;21.30;;;;;;4941490;28;20446;-73
2021/03/31 13:22:16;;;;;;;6.37;5.83;;;40.80;20.80;;;;;;4954407;28;20832;-74